sensor_id;sensor_type;location;lat;lon;timestamp;P1;durP1;ratioP1;P2;durP2;ratioP2
50555;SDS011;36508;52.512;13.450;2023-05-07T00:00:25;15.13;;;14.00;;
50555;SDS011;36508;52.512;13.450;2023-05-07T00:02:51;15.30;;;14.10;;
50555;SDS011;36508;52.512;13.450;2023-05-07T00:05:16;16.47;;;15.17;;
50555;SDS011;36508;52.512;13.450;2023-05-07T00:07:42;14.83;;;13.70;;
50555;SDS011;36508;52.512;13.450;2023-05-07T00:10:08;17.90;;;16.30;;
50555;SDS011;36508;52.512;13.450;2023-05-07T00:12:35;14.80;;;13.60;;
50555;SDS011;36508;52.512;13.450;2023-05-07T00:15:04;15.20;;;13.80;;
50555;SDS011;36508;52.512;13.450;2023-05-07T00:17:30;20.63;;;14.97;;
50555;SDS011;36508;52.512;13.450;2023-05-07T00:19:57;14.60;;;13.20;;
50555;SDS011;36508;52.512;13.450;2023-05-07T00:22:23;15.13;;;13.87;;
50555;SDS011;36508;52.512;13.450;2023-05-07T00:24:49;15.30;;;14.13;;
50555;SDS011;36508;52.512;13.450;2023-05-07T00:27:14;14.50;;;13.20;;
50555;SDS011;36508;52.512;13.450;2023-05-07T00:29:40;13.70;;;12.30;;
50555;SDS011;36508;52.512;13.450;2023-05-07T00:32:05;13.97;;;12.97;;
50555;SDS011;36508;52.512;13.450;2023-05-07T00:34:31;15.27;;;13.93;;
50555;SDS011;36508;52.512;13.450;2023-05-07T00:36:57;13.67;;;12.53;;
50555;SDS011;36508;52.512;13.450;2023-05-07T00:39:22;12.90;;;11.80;;
50555;SDS011;36508;52.512;13.450;2023-05-07T00:41:48;13.83;;;12.73;;
50555;SDS011;36508;52.512;13.450;2023-05-07T00:44:13;15.17;;;13.87;;
50555;SDS011;36508;52.512;13.450;2023-05-07T00:46:39;15.73;;;14.47;;
50555;SDS011;36508;52.512;13.450;2023-05-07T00:49:05;17.23;;;15.93;;
50555;SDS011;36508;52.512;13.450;2023-05-07T00:51:31;16.40;;;14.97;;
50555;SDS011;36508;52.512;13.450;2023-05-07T00:53:57;13.70;;;12.53;;
50555;SDS011;36508;52.512;13.450;2023-05-07T00:56:25;14.83;;;13.57;;
50555;SDS011;36508;52.512;13.450;2023-05-07T00:58:51;16.07;;;14.70;;
50555;SDS011;36508;52.512;13.450;2023-05-07T01:01:17;15.80;;;14.60;;
50555;SDS011;36508;52.512;13.450;2023-05-07T01:03:43;15.40;;;14.27;;
50555;SDS011;36508;52.512;13.450;2023-05-07T01:06:08;15.87;;;14.23;;
50555;SDS011;36508;52.512;13.450;2023-05-07T01:08:37;14.87;;;13.60;;
50555;SDS011;36508;52.512;13.450;2023-05-07T01:11:05;13.20;;;12.20;;
50555;SDS011;36508;52.512;13.450;2023-05-07T01:13:32;16.40;;;15.00;;
50555;SDS011;36508;52.512;13.450;2023-05-07T01:15:59;14.53;;;13.20;;
50555;SDS011;36508;52.512;13.450;2023-05-07T01:18:25;12.40;;;11.40;;
50555;SDS011;36508;52.512;13.450;2023-05-07T01:20:51;13.20;;;12.10;;
50555;SDS011;36508;52.512;13.450;2023-05-07T01:23:18;14.73;;;13.63;;
50555;SDS011;36508;52.512;13.450;2023-05-07T01:25:50;15.97;;;14.63;;
50555;SDS011;36508;52.512;13.450;2023-05-07T01:28:19;14.20;;;13.23;;
50555;SDS011;36508;52.512;13.450;2023-05-07T01:30:46;14.20;;;13.10;;
50555;SDS011;36508;52.512;13.450;2023-05-07T01:33:15;13.50;;;12.50;;
50555;SDS011;36508;52.512;13.450;2023-05-07T01:35:47;14.80;;;13.70;;
50555;SDS011;36508;52.512;13.450;2023-05-07T01:38:15;14.00;;;12.90;;
50555;SDS011;36508;52.512;13.450;2023-05-07T01:40:41;12.23;;;11.33;;
50555;SDS011;36508;52.512;13.450;2023-05-07T01:43:07;13.60;;;12.50;;
50555;SDS011;36508;52.512;13.450;2023-05-07T01:45:34;13.10;;;12.17;;
50555;SDS011;36508;52.512;13.450;2023-05-07T01:48:01;13.47;;;12.43;;
50555;SDS011;36508;52.512;13.450;2023-05-07T01:50:27;13.03;;;11.93;;
50555;SDS011;36508;52.512;13.450;2023-05-07T01:52:54;13.27;;;12.30;;
50555;SDS011;36508;52.512;13.450;2023-05-07T01:55:20;13.17;;;12.03;;
50555;SDS011;36508;52.512;13.450;2023-05-07T01:57:46;12.80;;;11.80;;
50555;SDS011;36508;52.512;13.450;2023-05-07T02:00:12;12.80;;;11.87;;
50555;SDS011;36508;52.512;13.450;2023-05-07T02:02:38;14.27;;;12.63;;
50555;SDS011;36508;52.512;13.450;2023-05-07T02:05:04;13.57;;;12.57;;
50555;SDS011;36508;52.512;13.450;2023-05-07T02:07:29;13.37;;;11.67;;
50555;SDS011;36508;52.512;13.450;2023-05-07T02:09:55;13.20;;;12.00;;
50555;SDS011;36508;52.512;13.450;2023-05-07T02:12:21;13.00;;;12.10;;
50555;SDS011;36508;52.512;13.450;2023-05-07T02:14:47;12.63;;;11.73;;
50555;SDS011;36508;52.512;13.450;2023-05-07T02:17:13;13.27;;;12.37;;
50555;SDS011;36508;52.512;13.450;2023-05-07T02:19:38;14.03;;;12.80;;
50555;SDS011;36508;52.512;13.450;2023-05-07T02:22:04;17.20;;;14.10;;
50555;SDS011;36508;52.512;13.450;2023-05-07T02:24:30;15.60;;;13.63;;
50555;SDS011;36508;52.512;13.450;2023-05-07T02:26:55;14.27;;;12.97;;
50555;SDS011;36508;52.512;13.450;2023-05-07T02:29:21;13.90;;;12.90;;
50555;SDS011;36508;52.512;13.450;2023-05-07T02:31:47;14.83;;;13.70;;
50555;SDS011;36508;52.512;13.450;2023-05-07T02:34:15;14.20;;;13.10;;
50555;SDS011;36508;52.512;13.450;2023-05-07T02:36:42;14.40;;;13.23;;
50555;SDS011;36508;52.512;13.450;2023-05-07T02:39:08;13.33;;;12.30;;
50555;SDS011;36508;52.512;13.450;2023-05-07T02:41:33;14.80;;;13.67;;
50555;SDS011;36508;52.512;13.450;2023-05-07T02:43:59;13.00;;;11.80;;
50555;SDS011;36508;52.512;13.450;2023-05-07T02:46:25;14.77;;;13.63;;
50555;SDS011;36508;52.512;13.450;2023-05-07T02:48:50;12.97;;;11.77;;
50555;SDS011;36508;52.512;13.450;2023-05-07T02:51:19;12.77;;;11.83;;
50555;SDS011;36508;52.512;13.450;2023-05-07T02:53:47;13.87;;;12.67;;
50555;SDS011;36508;52.512;13.450;2023-05-07T02:56:12;12.67;;;11.47;;
50555;SDS011;36508;52.512;13.450;2023-05-07T02:58:38;13.33;;;12.23;;
50555;SDS011;36508;52.512;13.450;2023-05-07T03:01:12;10.87;;;10.07;;
50555;SDS011;36508;52.512;13.450;2023-05-07T03:03:39;14.83;;;13.63;;
50555;SDS011;36508;52.512;13.450;2023-05-07T03:06:05;12.30;;;11.40;;
50555;SDS011;36508;52.512;13.450;2023-05-07T03:08:31;13.33;;;12.30;;
50555;SDS011;36508;52.512;13.450;2023-05-07T03:10:57;13.77;;;12.67;;
50555;SDS011;36508;52.512;13.450;2023-05-07T03:13:23;12.20;;;11.30;;
50555;SDS011;36508;52.512;13.450;2023-05-07T03:15:48;11.60;;;10.60;;
50555;SDS011;36508;52.512;13.450;2023-05-07T03:18:14;13.17;;;11.93;;
50555;SDS011;36508;52.512;13.450;2023-05-07T03:20:39;14.40;;;13.03;;
50555;SDS011;36508;52.512;13.450;2023-05-07T03:23:05;12.80;;;11.90;;
50555;SDS011;36508;52.512;13.450;2023-05-07T03:25:31;12.70;;;11.40;;
50555;SDS011;36508;52.512;13.450;2023-05-07T03:27:57;12.83;;;11.83;;
50555;SDS011;36508;52.512;13.450;2023-05-07T03:30:23;12.87;;;11.83;;
50555;SDS011;36508;52.512;13.450;2023-05-07T03:32:49;11.17;;;10.40;;
50555;SDS011;36508;52.512;13.450;2023-05-07T03:35:15;12.80;;;11.87;;
50555;SDS011;36508;52.512;13.450;2023-05-07T03:37:40;11.87;;;11.07;;
50555;SDS011;36508;52.512;13.450;2023-05-07T03:40:07;13.10;;;11.80;;
50555;SDS011;36508;52.512;13.450;2023-05-07T03:42:35;12.43;;;11.47;;
50555;SDS011;36508;52.512;13.450;2023-05-07T03:45:00;13.47;;;12.30;;
50555;SDS011;36508;52.512;13.450;2023-05-07T03:47:27;16.60;;;14.80;;
50555;SDS011;36508;52.512;13.450;2023-05-07T03:49:54;12.90;;;11.90;;
50555;SDS011;36508;52.512;13.450;2023-05-07T03:52:20;12.97;;;11.67;;
50555;SDS011;36508;52.512;13.450;2023-05-07T03:54:50;12.67;;;11.53;;
50555;SDS011;36508;52.512;13.450;2023-05-07T03:57:17;13.40;;;12.40;;
50555;SDS011;36508;52.512;13.450;2023-05-07T03:59:42;11.97;;;10.97;;
50555;SDS011;36508;52.512;13.450;2023-05-07T04:02:08;12.83;;;11.83;;
50555;SDS011;36508;52.512;13.450;2023-05-07T04:04:33;12.23;;;11.27;;
50555;SDS011;36508;52.512;13.450;2023-05-07T04:06:59;13.27;;;12.30;;
50555;SDS011;36508;52.512;13.450;2023-05-07T04:09:25;12.90;;;11.80;;
50555;SDS011;36508;52.512;13.450;2023-05-07T04:11:51;12.73;;;11.63;;
50555;SDS011;36508;52.512;13.450;2023-05-07T04:14:16;11.30;;;10.27;;
50555;SDS011;36508;52.512;13.450;2023-05-07T04:16:42;12.77;;;11.60;;
50555;SDS011;36508;52.512;13.450;2023-05-07T04:19:07;12.57;;;11.53;;
50555;SDS011;36508;52.512;13.450;2023-05-07T04:21:33;10.33;;;9.63;;
50555;SDS011;36508;52.512;13.450;2023-05-07T04:23:59;11.77;;;10.80;;
50555;SDS011;36508;52.512;13.450;2023-05-07T04:26:24;10.87;;;9.80;;
50555;SDS011;36508;52.512;13.450;2023-05-07T04:28:50;12.20;;;11.20;;
50555;SDS011;36508;52.512;13.450;2023-05-07T04:31:15;11.77;;;10.67;;
50555;SDS011;36508;52.512;13.450;2023-05-07T04:33:41;11.00;;;10.10;;
50555;SDS011;36508;52.512;13.450;2023-05-07T04:36:07;11.20;;;10.30;;
50555;SDS011;36508;52.512;13.450;2023-05-07T04:38:33;12.37;;;10.50;;
50555;SDS011;36508;52.512;13.450;2023-05-07T04:41:05;9.83;;;9.30;;
50555;SDS011;36508;52.512;13.450;2023-05-07T04:43:31;9.30;;;8.53;;
50555;SDS011;36508;52.512;13.450;2023-05-07T04:45:57;10.20;;;9.37;;
50555;SDS011;36508;52.512;13.450;2023-05-07T04:48:23;9.37;;;8.67;;
50555;SDS011;36508;52.512;13.450;2023-05-07T04:50:49;11.10;;;10.27;;
50555;SDS011;36508;52.512;13.450;2023-05-07T04:53:16;10.13;;;9.33;;
50555;SDS011;36508;52.512;13.450;2023-05-07T04:55:42;11.17;;;10.13;;
50555;SDS011;36508;52.512;13.450;2023-05-07T04:58:08;10.10;;;9.40;;
50555;SDS011;36508;52.512;13.450;2023-05-07T05:00:34;8.87;;;8.30;;
50555;SDS011;36508;52.512;13.450;2023-05-07T05:02:59;9.10;;;8.47;;
50555;SDS011;36508;52.512;13.450;2023-05-07T05:05:25;9.30;;;8.50;;
50555;SDS011;36508;52.512;13.450;2023-05-07T05:07:51;10.80;;;9.00;;
50555;SDS011;36508;52.512;13.450;2023-05-07T05:10:17;9.00;;;8.40;;
50555;SDS011;36508;52.512;13.450;2023-05-07T05:12:43;9.23;;;8.60;;
50555;SDS011;36508;52.512;13.450;2023-05-07T05:15:10;9.10;;;8.30;;
50555;SDS011;36508;52.512;13.450;2023-05-07T05:17:37;8.67;;;8.00;;
50555;SDS011;36508;52.512;13.450;2023-05-07T05:20:03;7.87;;;7.27;;
50555;SDS011;36508;52.512;13.450;2023-05-07T05:22:30;8.43;;;7.83;;
50555;SDS011;36508;52.512;13.450;2023-05-07T05:24:56;8.80;;;8.10;;
50555;SDS011;36508;52.512;13.450;2023-05-07T05:27:22;10.57;;;9.80;;
50555;SDS011;36508;52.512;13.450;2023-05-07T05:29:48;10.40;;;9.40;;
50555;SDS011;36508;52.512;13.450;2023-05-07T05:32:13;8.80;;;8.20;;
50555;SDS011;36508;52.512;13.450;2023-05-07T05:34:39;10.03;;;9.23;;
50555;SDS011;36508;52.512;13.450;2023-05-07T05:37:04;11.17;;;10.07;;
50555;SDS011;36508;52.512;13.450;2023-05-07T05:39:33;11.60;;;10.60;;
50555;SDS011;36508;52.512;13.450;2023-05-07T05:41:58;11.40;;;10.50;;
50555;SDS011;36508;52.512;13.450;2023-05-07T05:44:24;9.60;;;8.87;;
50555;SDS011;36508;52.512;13.450;2023-05-07T05:46:50;10.90;;;10.00;;
50555;SDS011;36508;52.512;13.450;2023-05-07T05:49:16;10.03;;;9.27;;
50555;SDS011;36508;52.512;13.450;2023-05-07T05:51:42;10.07;;;9.33;;
50555;SDS011;36508;52.512;13.450;2023-05-07T05:54:08;10.27;;;9.57;;
50555;SDS011;36508;52.512;13.450;2023-05-07T05:56:34;9.83;;;9.20;;
50555;SDS011;36508;52.512;13.450;2023-05-07T05:58:59;11.07;;;10.20;;
50555;SDS011;36508;52.512;13.450;2023-05-07T06:01:25;10.83;;;10.03;;
50555;SDS011;36508;52.512;13.450;2023-05-07T06:03:51;11.53;;;10.53;;
50555;SDS011;36508;52.512;13.450;2023-05-07T06:06:17;11.90;;;11.00;;
50555;SDS011;36508;52.512;13.450;2023-05-07T06:08:42;9.83;;;9.10;;
50555;SDS011;36508;52.512;13.450;2023-05-07T06:11:08;9.27;;;8.67;;
50555;SDS011;36508;52.512;13.450;2023-05-07T06:13:34;10.33;;;9.43;;
50555;SDS011;36508;52.512;13.450;2023-05-07T06:15:59;10.07;;;9.27;;
50555;SDS011;36508;52.512;13.450;2023-05-07T06:18:25;10.10;;;9.40;;
50555;SDS011;36508;52.512;13.450;2023-05-07T06:20:51;11.10;;;10.20;;
50555;SDS011;36508;52.512;13.450;2023-05-07T06:23:17;8.93;;;8.33;;
50555;SDS011;36508;52.512;13.450;2023-05-07T06:25:47;8.73;;;8.13;;
50555;SDS011;36508;52.512;13.450;2023-05-07T06:28:14;10.67;;;9.83;;
50555;SDS011;36508;52.512;13.450;2023-05-07T06:30:39;8.83;;;8.23;;
50555;SDS011;36508;52.512;13.450;2023-05-07T06:33:05;9.83;;;8.07;;
50555;SDS011;36508;52.512;13.450;2023-05-07T06:35:31;9.03;;;8.23;;
50555;SDS011;36508;52.512;13.450;2023-05-07T06:37:56;9.53;;;8.83;;
50555;SDS011;36508;52.512;13.450;2023-05-07T06:40:22;11.33;;;10.33;;
50555;SDS011;36508;52.512;13.450;2023-05-07T06:42:47;11.40;;;10.47;;
50555;SDS011;36508;52.512;13.450;2023-05-07T06:45:13;8.70;;;7.90;;
50555;SDS011;36508;52.512;13.450;2023-05-07T06:47:39;10.50;;;9.10;;
50555;SDS011;36508;52.512;13.450;2023-05-07T06:50:05;9.13;;;8.43;;
50555;SDS011;36508;52.512;13.450;2023-05-07T06:52:31;9.40;;;8.50;;
50555;SDS011;36508;52.512;13.450;2023-05-07T06:54:56;9.47;;;8.57;;
50555;SDS011;36508;52.512;13.450;2023-05-07T06:57:22;10.17;;;9.47;;
50555;SDS011;36508;52.512;13.450;2023-05-07T06:59:48;7.87;;;7.27;;
50555;SDS011;36508;52.512;13.450;2023-05-07T07:02:14;9.23;;;8.57;;
50555;SDS011;36508;52.512;13.450;2023-05-07T07:04:39;11.53;;;10.53;;
50555;SDS011;36508;52.512;13.450;2023-05-07T07:07:06;10.60;;;9.80;;
50555;SDS011;36508;52.512;13.450;2023-05-07T07:09:32;7.63;;;7.13;;
50555;SDS011;36508;52.512;13.450;2023-05-07T07:11:58;9.97;;;8.90;;
50555;SDS011;36508;52.512;13.450;2023-05-07T07:14:23;9.17;;;8.57;;
50555;SDS011;36508;52.512;13.450;2023-05-07T07:16:49;8.63;;;7.93;;
50555;SDS011;36508;52.512;13.450;2023-05-07T07:19:15;8.50;;;7.80;;
50555;SDS011;36508;52.512;13.450;2023-05-07T07:21:41;7.70;;;7.03;;
50555;SDS011;36508;52.512;13.450;2023-05-07T07:24:07;9.00;;;8.30;;
50555;SDS011;36508;52.512;13.450;2023-05-07T07:26:32;7.53;;;6.93;;
50555;SDS011;36508;52.512;13.450;2023-05-07T07:28:58;7.13;;;6.53;;
50555;SDS011;36508;52.512;13.450;2023-05-07T07:31:24;8.97;;;8.23;;
50555;SDS011;36508;52.512;13.450;2023-05-07T07:33:50;7.00;;;6.50;;
50555;SDS011;36508;52.512;13.450;2023-05-07T07:36:15;9.30;;;6.20;;
50555;SDS011;36508;52.512;13.450;2023-05-07T07:38:41;5.80;;;5.47;;
50555;SDS011;36508;52.512;13.450;2023-05-07T07:41:09;6.77;;;6.13;;
50555;SDS011;36508;52.512;13.450;2023-05-07T07:43:35;6.90;;;5.80;;
50555;SDS011;36508;52.512;13.450;2023-05-07T07:46:01;9.73;;;8.83;;
50555;SDS011;36508;52.512;13.450;2023-05-07T07:48:26;6.67;;;6.17;;
50555;SDS011;36508;52.512;13.450;2023-05-07T07:50:52;5.73;;;5.33;;
50555;SDS011;36508;52.512;13.450;2023-05-07T07:53:18;6.10;;;5.70;;
50555;SDS011;36508;52.512;13.450;2023-05-07T07:55:44;7.30;;;6.67;;
50555;SDS011;36508;52.512;13.450;2023-05-07T07:58:09;7.03;;;6.47;;
50555;SDS011;36508;52.512;13.450;2023-05-07T08:00:35;6.97;;;6.37;;
50555;SDS011;36508;52.512;13.450;2023-05-07T08:03:01;7.33;;;6.67;;
50555;SDS011;36508;52.512;13.450;2023-05-07T08:05:28;6.10;;;5.70;;
50555;SDS011;36508;52.512;13.450;2023-05-07T08:07:53;5.90;;;5.50;;
50555;SDS011;36508;52.512;13.450;2023-05-07T08:10:19;5.67;;;5.20;;
50555;SDS011;36508;52.512;13.450;2023-05-07T08:12:48;7.17;;;6.73;;
50555;SDS011;36508;52.512;13.450;2023-05-07T08:15:14;4.80;;;4.50;;
50555;SDS011;36508;52.512;13.450;2023-05-07T08:17:40;4.97;;;4.67;;
50555;SDS011;36508;52.512;13.450;2023-05-07T08:20:06;5.00;;;4.70;;
50555;SDS011;36508;52.512;13.450;2023-05-07T08:22:33;5.30;;;5.00;;
50555;SDS011;36508;52.512;13.450;2023-05-07T08:24:59;6.00;;;5.57;;
50555;SDS011;36508;52.512;13.450;2023-05-07T08:27:25;5.37;;;4.97;;
50555;SDS011;36508;52.512;13.450;2023-05-07T08:29:51;5.10;;;4.80;;
50555;SDS011;36508;52.512;13.450;2023-05-07T08:32:16;5.00;;;4.70;;
50555;SDS011;36508;52.512;13.450;2023-05-07T08:34:42;4.30;;;4.07;;
50555;SDS011;36508;52.512;13.450;2023-05-07T08:37:08;4.43;;;4.13;;
50555;SDS011;36508;52.512;13.450;2023-05-07T08:39:33;5.03;;;4.70;;
50555;SDS011;36508;52.512;13.450;2023-05-07T08:42:00;6.33;;;5.90;;
50555;SDS011;36508;52.512;13.450;2023-05-07T08:44:29;4.70;;;4.33;;
50555;SDS011;36508;52.512;13.450;2023-05-07T08:46:59;6.77;;;5.73;;
50555;SDS011;36508;52.512;13.450;2023-05-07T08:49:27;4.57;;;4.20;;
50555;SDS011;36508;52.512;13.450;2023-05-07T08:51:52;6.00;;;4.63;;
50555;SDS011;36508;52.512;13.450;2023-05-07T08:54:18;7.60;;;6.93;;
50555;SDS011;36508;52.512;13.450;2023-05-07T08:56:45;4.20;;;4.00;;
50555;SDS011;36508;52.512;13.450;2023-05-07T08:59:11;5.37;;;5.07;;
50555;SDS011;36508;52.512;13.450;2023-05-07T09:01:37;5.40;;;5.00;;
50555;SDS011;36508;52.512;13.450;2023-05-07T09:04:03;5.60;;;5.10;;
50555;SDS011;36508;52.512;13.450;2023-05-07T09:06:29;5.13;;;4.63;;
50555;SDS011;36508;52.512;13.450;2023-05-07T09:08:55;4.30;;;4.00;;
50555;SDS011;36508;52.512;13.450;2023-05-07T09:11:22;6.87;;;6.33;;
50555;SDS011;36508;52.512;13.450;2023-05-07T09:13:51;5.17;;;4.77;;
50555;SDS011;36508;52.512;13.450;2023-05-07T09:16:23;4.70;;;4.40;;
50555;SDS011;36508;52.512;13.450;2023-05-07T09:18:53;4.93;;;4.53;;
50555;SDS011;36508;52.512;13.450;2023-05-07T09:21:20;4.27;;;4.00;;
50555;SDS011;36508;52.512;13.450;2023-05-07T09:23:47;5.37;;;4.97;;
50555;SDS011;36508;52.512;13.450;2023-05-07T09:26:15;4.80;;;4.50;;
50555;SDS011;36508;52.512;13.450;2023-05-07T09:28:41;5.83;;;5.33;;
50555;SDS011;36508;52.512;13.450;2023-05-07T09:31:08;5.20;;;4.80;;
50555;SDS011;36508;52.512;13.450;2023-05-07T09:33:34;4.33;;;3.93;;
50555;SDS011;36508;52.512;13.450;2023-05-07T09:36:04;5.83;;;4.30;;
50555;SDS011;36508;52.512;13.450;2023-05-07T09:38:31;5.47;;;4.47;;
50555;SDS011;36508;52.512;13.450;2023-05-07T09:41:01;4.90;;;4.10;;
50555;SDS011;36508;52.512;13.450;2023-05-07T09:43:27;5.00;;;3.80;;
50555;SDS011;36508;52.512;13.450;2023-05-07T09:46:05;5.60;;;5.17;;
50555;SDS011;36508;52.512;13.450;2023-05-07T09:48:36;6.70;;;4.60;;
50555;SDS011;36508;52.512;13.450;2023-05-07T09:51:06;4.73;;;4.33;;
50555;SDS011;36508;52.512;13.450;2023-05-07T09:53:50;3.00;;;2.90;;
50555;SDS011;36508;52.512;13.450;2023-05-07T09:56:18;3.83;;;3.53;;
50555;SDS011;36508;52.512;13.450;2023-05-07T09:58:45;3.30;;;3.10;;
50555;SDS011;36508;52.512;13.450;2023-05-07T10:01:11;3.50;;;3.30;;
50555;SDS011;36508;52.512;13.450;2023-05-07T10:03:38;3.50;;;3.20;;
50555;SDS011;36508;52.512;13.450;2023-05-07T10:06:05;3.30;;;3.10;;
50555;SDS011;36508;52.512;13.450;2023-05-07T10:08:33;3.07;;;2.90;;
50555;SDS011;36508;52.512;13.450;2023-05-07T10:11:00;3.80;;;3.60;;
50555;SDS011;36508;52.512;13.450;2023-05-07T10:13:26;4.60;;;3.43;;
50555;SDS011;36508;52.512;13.450;2023-05-07T10:15:52;4.27;;;3.27;;
50555;SDS011;36508;52.512;13.450;2023-05-07T10:18:18;2.97;;;2.60;;
50555;SDS011;36508;52.512;13.450;2023-05-07T10:20:48;3.10;;;2.90;;
50555;SDS011;36508;52.512;13.450;2023-05-07T10:23:20;2.73;;;2.63;;
50555;SDS011;36508;52.512;13.450;2023-05-07T10:25:48;4.80;;;3.27;;
50555;SDS011;36508;52.512;13.450;2023-05-07T10:28:14;3.37;;;3.13;;
50555;SDS011;36508;52.512;13.450;2023-05-07T10:33:19;3.33;;;3.03;;
50555;SDS011;36508;52.512;13.450;2023-05-07T10:35:49;3.60;;;3.30;;
50555;SDS011;36508;52.512;13.450;2023-05-07T10:38:15;3.10;;;2.90;;
50555;SDS011;36508;52.512;13.450;2023-05-07T10:40:41;2.97;;;2.77;;
50555;SDS011;36508;52.512;13.450;2023-05-07T10:43:08;3.23;;;2.93;;
50555;SDS011;36508;52.512;13.450;2023-05-07T10:45:35;3.53;;;3.33;;
50555;SDS011;36508;52.512;13.450;2023-05-07T10:50:36;3.00;;;2.80;;
50555;SDS011;36508;52.512;13.450;2023-05-07T10:53:36;3.17;;;2.87;;
50555;SDS011;36508;52.512;13.450;2023-05-07T10:58:42;3.07;;;2.90;;
50555;SDS011;36508;52.512;13.450;2023-05-07T11:01:08;2.27;;;2.17;;
50555;SDS011;36508;52.512;13.450;2023-05-07T11:03:35;3.27;;;2.97;;
50555;SDS011;36508;52.512;13.450;2023-05-07T11:06:13;4.10;;;3.80;;
50555;SDS011;36508;52.512;13.450;2023-05-07T11:14:14;7.80;;;4.90;;
50555;SDS011;36508;52.512;13.450;2023-05-07T11:20:00;5.07;;;2.17;;
50555;SDS011;36508;52.512;13.450;2023-05-07T11:24:56;4.20;;;2.77;;
50555;SDS011;36508;52.512;13.450;2023-05-07T11:27:25;3.60;;;3.40;;
50555;SDS011;36508;52.512;13.450;2023-05-07T11:29:51;2.13;;;2.03;;
50555;SDS011;36508;52.512;13.450;2023-05-07T11:32:23;3.93;;;3.60;;
50555;SDS011;36508;52.512;13.450;2023-05-07T11:34:53;2.90;;;2.40;;
50555;SDS011;36508;52.512;13.450;2023-05-07T11:37:20;5.07;;;4.47;;
50555;SDS011;36508;52.512;13.450;2023-05-07T11:39:47;4.07;;;3.77;;
50555;SDS011;36508;52.512;13.450;2023-05-07T11:45:10;4.87;;;4.57;;
50555;SDS011;36508;52.512;13.450;2023-05-07T11:47:36;4.40;;;4.03;;
50555;SDS011;36508;52.512;13.450;2023-05-07T11:50:03;5.10;;;4.70;;
50555;SDS011;36508;52.512;13.450;2023-05-07T11:52:30;2.90;;;2.57;;
50555;SDS011;36508;52.512;13.450;2023-05-07T11:54:57;3.90;;;2.30;;
50555;SDS011;36508;52.512;13.450;2023-05-07T11:57:25;3.33;;;2.90;;
50555;SDS011;36508;52.512;13.450;2023-05-07T11:59:54;2.63;;;2.53;;
50555;SDS011;36508;52.512;13.450;2023-05-07T12:02:20;2.73;;;2.53;;
50555;SDS011;36508;52.512;13.450;2023-05-07T12:04:46;2.13;;;2.03;;
50555;SDS011;36508;52.512;13.450;2023-05-07T12:07:12;2.20;;;2.10;;
50555;SDS011;36508;52.512;13.450;2023-05-07T12:09:39;2.93;;;2.73;;
50555;SDS011;36508;52.512;13.450;2023-05-07T12:12:06;3.10;;;2.60;;
50555;SDS011;36508;52.512;13.450;2023-05-07T12:14:31;3.77;;;3.47;;
50555;SDS011;36508;52.512;13.450;2023-05-07T12:16:57;7.47;;;6.60;;
50555;SDS011;36508;52.512;13.450;2023-05-07T12:19:30;2.77;;;2.57;;
50555;SDS011;36508;52.512;13.450;2023-05-07T12:21:56;2.53;;;2.13;;
50555;SDS011;36508;52.512;13.450;2023-05-07T12:24:22;6.30;;;3.00;;
50555;SDS011;36508;52.512;13.450;2023-05-07T12:26:48;2.70;;;2.60;;
50555;SDS011;36508;52.512;13.450;2023-05-07T12:29:14;4.60;;;2.63;;
50555;SDS011;36508;52.512;13.450;2023-05-07T12:31:40;2.57;;;2.47;;
50555;SDS011;36508;52.512;13.450;2023-05-07T12:34:06;2.63;;;2.53;;
50555;SDS011;36508;52.512;13.450;2023-05-07T12:36:38;2.97;;;2.67;;
50555;SDS011;36508;52.512;13.450;2023-05-07T12:39:05;4.10;;;2.50;;
50555;SDS011;36508;52.512;13.450;2023-05-07T12:41:35;1.83;;;1.73;;
50555;SDS011;36508;52.512;13.450;2023-05-07T12:44:17;2.60;;;2.50;;
50555;SDS011;36508;52.512;13.450;2023-05-07T12:46:43;4.70;;;3.17;;
50555;SDS011;36508;52.512;13.450;2023-05-07T12:49:09;2.47;;;2.30;;
50555;SDS011;36508;52.512;13.450;2023-05-07T12:51:35;3.10;;;2.80;;
50555;SDS011;36508;52.512;13.450;2023-05-07T12:54:00;2.67;;;2.57;;
50555;SDS011;36508;52.512;13.450;2023-05-07T12:56:26;8.80;;;7.97;;
50555;SDS011;36508;52.512;13.450;2023-05-07T12:58:51;3.43;;;2.90;;
50555;SDS011;36508;52.512;13.450;2023-05-07T13:01:28;2.80;;;2.60;;
50555;SDS011;36508;52.512;13.450;2023-05-07T13:03:55;2.33;;;2.23;;
50555;SDS011;36508;52.512;13.450;2023-05-07T13:06:20;2.50;;;2.00;;
50555;SDS011;36508;52.512;13.450;2023-05-07T13:08:46;3.33;;;3.03;;
50555;SDS011;36508;52.512;13.450;2023-05-07T13:11:12;2.37;;;1.77;;
50555;SDS011;36508;52.512;13.450;2023-05-07T13:13:38;2.23;;;2.13;;
50555;SDS011;36508;52.512;13.450;2023-05-07T13:16:06;2.63;;;2.40;;
50555;SDS011;36508;52.512;13.450;2023-05-07T13:18:33;4.60;;;4.20;;
50555;SDS011;36508;52.512;13.450;2023-05-07T13:20:59;3.67;;;3.37;;
50555;SDS011;36508;52.512;13.450;2023-05-07T13:23:26;2.73;;;2.53;;
50555;SDS011;36508;52.512;13.450;2023-05-07T13:25:52;3.70;;;2.60;;
50555;SDS011;36508;52.512;13.450;2023-05-07T13:28:21;5.47;;;3.60;;
50555;SDS011;36508;52.512;13.450;2023-05-07T13:30:51;2.03;;;1.93;;
50555;SDS011;36508;52.512;13.450;2023-05-07T13:33:17;3.30;;;2.50;;
50555;SDS011;36508;52.512;13.450;2023-05-07T13:35:43;11.30;;;7.37;;
50555;SDS011;36508;52.512;13.450;2023-05-07T13:38:09;2.50;;;2.30;;
50555;SDS011;36508;52.512;13.450;2023-05-07T13:40:35;4.50;;;3.30;;
50555;SDS011;36508;52.512;13.450;2023-05-07T13:43:00;2.20;;;2.10;;
50555;SDS011;36508;52.512;13.450;2023-05-07T13:45:29;2.63;;;2.17;;
50555;SDS011;36508;52.512;13.450;2023-05-07T13:47:55;2.73;;;2.53;;
50555;SDS011;36508;52.512;13.450;2023-05-07T13:50:21;2.60;;;2.40;;
50555;SDS011;36508;52.512;13.450;2023-05-07T13:52:47;4.07;;;3.87;;
50555;SDS011;36508;52.512;13.450;2023-05-07T13:55:16;2.97;;;2.27;;
50555;SDS011;36508;52.512;13.450;2023-05-07T13:57:43;3.10;;;2.90;;
50555;SDS011;36508;52.512;13.450;2023-05-07T14:00:09;2.30;;;2.20;;
50555;SDS011;36508;52.512;13.450;2023-05-07T14:02:35;2.43;;;2.33;;
50555;SDS011;36508;52.512;13.450;2023-05-07T14:05:00;3.33;;;3.03;;
50555;SDS011;36508;52.512;13.450;2023-05-07T14:07:26;3.20;;;2.80;;
50555;SDS011;36508;52.512;13.450;2023-05-07T14:09:51;3.70;;;2.37;;
50555;SDS011;36508;52.512;13.450;2023-05-07T14:12:17;2.47;;;2.37;;
50555;SDS011;36508;52.512;13.450;2023-05-07T14:14:42;3.13;;;3.00;;
50555;SDS011;36508;52.512;13.450;2023-05-07T14:17:08;6.30;;;4.33;;
50555;SDS011;36508;52.512;13.450;2023-05-07T14:19:34;3.10;;;2.90;;
50555;SDS011;36508;52.512;13.450;2023-05-07T14:21:59;2.70;;;2.30;;
50555;SDS011;36508;52.512;13.450;2023-05-07T14:24:25;3.07;;;2.87;;
50555;SDS011;36508;52.512;13.450;2023-05-07T14:26:50;3.67;;;3.37;;
50555;SDS011;36508;52.512;13.450;2023-05-07T14:29:16;3.50;;;3.30;;
50555;SDS011;36508;52.512;13.450;2023-05-07T14:31:44;2.13;;;2.03;;
50555;SDS011;36508;52.512;13.450;2023-05-07T14:34:10;3.27;;;3.07;;
50555;SDS011;36508;52.512;13.450;2023-05-07T14:36:35;2.40;;;2.30;;
50555;SDS011;36508;52.512;13.450;2023-05-07T14:39:02;2.93;;;2.73;;
50555;SDS011;36508;52.512;13.450;2023-05-07T14:41:28;3.30;;;3.10;;